sensor_id;sensor_type;location;lat;lon;timestamp;temperature;humidity
52709;DHT22;38606;52.986;6.980;2022-12-29T00:02:10;9.60;99.90
52709;DHT22;38606;52.986;6.980;2022-12-29T00:04:36;9.80;99.90
52709;DHT22;38606;52.986;6.980;2022-12-29T00:07:02;9.10;99.90
52709;DHT22;38606;52.986;6.980;2022-12-29T00:09:30;9.90;99.90
52709;DHT22;38606;52.986;6.980;2022-12-29T00:11:57;9.60;99.90
52709;DHT22;38606;52.986;6.980;2022-12-29T00:14:22;9.80;99.90
52709;DHT22;38606;52.986;6.980;2022-12-29T00:17:06;9.70;99.90
52709;DHT22;38606;52.986;6.980;2022-12-29T00:19:32;9.90;99.90
52709;DHT22;38606;52.986;6.980;2022-12-29T00:22:17;10.00;99.90
52709;DHT22;38606;52.986;6.980;2022-12-29T00:25:01;9.90;99.90
52709;DHT22;38606;52.986;6.980;2022-12-29T00:27:31;10.10;99.90
52709;DHT22;38606;52.986;6.980;2022-12-29T00:30:18;9.80;99.90
52709;DHT22;38606;52.986;6.980;2022-12-29T00:33:10;9.80;99.90
52709;DHT22;38606;52.986;6.980;2022-12-29T00:36:02;9.80;99.90
52709;DHT22;38606;52.986;6.980;2022-12-29T00:38:29;9.80;99.90
52709;DHT22;38606;52.986;6.980;2022-12-29T00:41:15;9.90;99.90
52709;DHT22;38606;52.986;6.980;2022-12-29T00:43:59;9.90;99.90
52709;DHT22;38606;52.986;6.980;2022-12-29T00:46:35;9.70;99.90
52709;DHT22;38606;52.986;6.980;2022-12-29T00:49:02;9.80;99.90
52709;DHT22;38606;52.986;6.980;2022-12-29T00:51:47;9.70;99.90
52709;DHT22;38606;52.986;6.980;2022-12-29T00:54:13;9.90;99.90
52709;DHT22;38606;52.986;6.980;2022-12-29T00:56:39;11.70;99.90
52709;DHT22;38606;52.986;6.980;2022-12-29T00:59:07;10.00;99.90
52709;DHT22;38606;52.986;6.980;2022-12-29T01:01:33;10.00;99.90
52709;DHT22;38606;52.986;6.980;2022-12-29T01:03:59;10.00;99.90
52709;DHT22;38606;52.986;6.980;2022-12-29T01:06:25;10.20;99.90
52709;DHT22;38606;52.986;6.980;2022-12-29T01:08:51;10.00;99.90
52709;DHT22;38606;52.986;6.980;2022-12-29T01:11:37;9.90;99.90
52709;DHT22;38606;52.986;6.980;2022-12-29T01:14:03;10.10;99.90
52709;DHT22;38606;52.986;6.980;2022-12-29T01:16:29;10.00;99.90
52709;DHT22;38606;52.986;6.980;2022-12-29T01:18:54;10.00;99.90
52709;DHT22;38606;52.986;6.980;2022-12-29T01:21:20;10.00;99.90
52709;DHT22;38606;52.986;6.980;2022-12-29T01:23:46;10.10;99.90
52709;DHT22;38606;52.986;6.980;2022-12-29T01:26:13;9.90;99.90
52709;DHT22;38606;52.986;6.980;2022-12-29T01:28:39;10.30;99.90
52709;DHT22;38606;52.986;6.980;2022-12-29T01:31:10;10.00;99.90
52709;DHT22;38606;52.986;6.980;2022-12-29T01:33:36;10.00;99.90
52709;DHT22;38606;52.986;6.980;2022-12-29T01:36:03;10.00;99.90
52709;DHT22;38606;52.986;6.980;2022-12-29T01:38:30;10.10;99.90
52709;DHT22;38606;52.986;6.980;2022-12-29T01:40:56;10.30;99.90
52709;DHT22;38606;52.986;6.980;2022-12-29T01:43:48;10.20;99.90
52709;DHT22;38606;52.986;6.980;2022-12-29T01:49:16;10.10;99.90
52709;DHT22;38606;52.986;6.980;2022-12-29T01:54:24;10.10;99.90
52709;DHT22;38606;52.986;6.980;2022-12-29T01:56:52;10.30;99.90
52709;DHT22;38606;52.986;6.980;2022-12-29T01:59:24;10.20;99.90
52709;DHT22;38606;52.986;6.980;2022-12-29T02:01:51;10.10;99.90
52709;DHT22;38606;52.986;6.980;2022-12-29T02:04:17;10.40;99.90
52709;DHT22;38606;52.986;6.980;2022-12-29T02:07:30;10.40;99.90
52709;DHT22;38606;52.986;6.980;2022-12-29T02:09:37;10.30;99.90
52709;DHT22;38606;52.986;6.980;2022-12-29T02:12:03;10.30;99.90
52709;DHT22;38606;52.986;6.980;2022-12-29T02:14:29;10.50;99.90
52709;DHT22;38606;52.986;6.980;2022-12-29T02:19:56;10.20;99.90
52709;DHT22;38606;52.986;6.980;2022-12-29T02:27:57;10.50;99.90
52709;DHT22;38606;52.986;6.980;2022-12-29T02:34:10;10.60;99.90
52709;DHT22;38606;52.986;6.980;2022-12-29T02:37:10;10.50;99.90
52709;DHT22;38606;52.986;6.980;2022-12-29T02:42:36;10.50;99.90
52709;DHT22;38606;52.986;6.980;2022-12-29T02:45:35;10.50;99.90
52709;DHT22;38606;52.986;6.980;2022-12-29T02:48:15;10.50;99.90
52709;DHT22;38606;52.986;6.980;2022-12-29T02:53:19;10.50;99.90
52709;DHT22;38606;52.986;6.980;2022-12-29T02:56:06;10.50;99.90
52709;DHT22;38606;52.986;6.980;2022-12-29T02:58:32;10.30;99.90
52709;DHT22;38606;52.986;6.980;2022-12-29T03:01:34;10.70;99.90
52709;DHT22;38606;52.986;6.980;2022-12-29T03:04:35;10.50;99.90
52709;DHT22;38606;52.986;6.980;2022-12-29T03:07:15;10.40;99.90
52709;DHT22;38606;52.986;6.980;2022-12-29T03:09:56;10.40;99.90
52709;DHT22;38606;52.986;6.980;2022-12-29T03:12:46;10.50;99.90
52709;DHT22;38606;52.986;6.980;2022-12-29T03:15:41;10.40;99.90
52709;DHT22;38606;52.986;6.980;2022-12-29T03:21:14;10.30;99.90
52709;DHT22;38606;52.986;6.980;2022-12-29T03:23:43;10.40;99.90
52709;DHT22;38606;52.986;6.980;2022-12-29T03:26:15;10.20;99.90
52709;DHT22;38606;52.986;6.980;2022-12-29T03:28:50;10.40;99.90
52709;DHT22;38606;52.986;6.980;2022-12-29T03:31:17;10.50;99.90
52709;DHT22;38606;52.986;6.980;2022-12-29T03:33:45;10.10;99.90
52709;DHT22;38606;52.986;6.980;2022-12-29T03:36:17;10.40;99.90
52709;DHT22;38606;52.986;6.980;2022-12-29T03:38:55;10.30;99.90
52709;DHT22;38606;52.986;6.980;2022-12-29T03:41:26;10.30;99.90
52709;DHT22;38606;52.986;6.980;2022-12-29T03:43:52;10.30;99.90
52709;DHT22;38606;52.986;6.980;2022-12-29T03:46:18;10.30;99.90
52709;DHT22;38606;52.986;6.980;2022-12-29T03:48:44;10.20;99.90
52709;DHT22;38606;52.986;6.980;2022-12-29T03:51:09;10.30;99.90
52709;DHT22;38606;52.986;6.980;2022-12-29T03:53:35;10.30;99.90
52709;DHT22;38606;52.986;6.980;2022-12-29T03:56:01;10.10;99.90
52709;DHT22;38606;52.986;6.980;2022-12-29T03:58:27;10.10;99.90
52709;DHT22;38606;52.986;6.980;2022-12-29T04:00:52;10.00;99.90
52709;DHT22;38606;52.986;6.980;2022-12-29T04:03:18;10.10;99.90
52709;DHT22;38606;52.986;6.980;2022-12-29T04:05:44;10.20;99.90
52709;DHT22;38606;52.986;6.980;2022-12-29T04:08:09;10.30;99.90
52709;DHT22;38606;52.986;6.980;2022-12-29T04:10:35;10.10;99.90
52709;DHT22;38606;52.986;6.980;2022-12-29T04:13:01;10.10;99.90
52709;DHT22;38606;52.986;6.980;2022-12-29T04:15:26;10.20;99.90
52709;DHT22;38606;52.986;6.980;2022-12-29T04:17:52;10.20;99.90
52709;DHT22;38606;52.986;6.980;2022-12-29T04:20:18;10.10;99.90
52709;DHT22;38606;52.986;6.980;2022-12-29T04:23:06;10.10;99.90
52709;DHT22;38606;52.986;6.980;2022-12-29T04:25:32;10.10;99.90
52709;DHT22;38606;52.986;6.980;2022-12-29T04:27:58;10.30;99.90
52709;DHT22;38606;52.986;6.980;2022-12-29T04:30:23;10.20;99.90
52709;DHT22;38606;52.986;6.980;2022-12-29T04:32:49;10.10;99.90
52709;DHT22;38606;52.986;6.980;2022-12-29T04:35:15;10.20;99.90
52709;DHT22;38606;52.986;6.980;2022-12-29T04:37:41;10.20;99.90
52709;DHT22;38606;52.986;6.980;2022-12-29T04:40:07;10.20;99.90
52709;DHT22;38606;52.986;6.980;2022-12-29T04:42:33;10.20;99.90
52709;DHT22;38606;52.986;6.980;2022-12-29T04:44:59;10.20;99.90
52709;DHT22;38606;52.986;6.980;2022-12-29T04:47:24;10.10;99.90
52709;DHT22;38606;52.986;6.980;2022-12-29T04:49:50;10.20;99.90
52709;DHT22;38606;52.986;6.980;2022-12-29T04:52:16;10.10;99.90
52709;DHT22;38606;52.986;6.980;2022-12-29T04:54:41;9.90;99.90
52709;DHT22;38606;52.986;6.980;2022-12-29T04:57:07;9.90;99.90
52709;DHT22;38606;52.986;6.980;2022-12-29T04:59:33;10.10;99.90
52709;DHT22;38606;52.986;6.980;2022-12-29T05:01:58;9.90;99.90
52709;DHT22;38606;52.986;6.980;2022-12-29T05:04:24;9.80;99.90
52709;DHT22;38606;52.986;6.980;2022-12-29T05:06:50;9.70;99.90
52709;DHT22;38606;52.986;6.980;2022-12-29T05:09:15;9.70;99.90
52709;DHT22;38606;52.986;6.980;2022-12-29T05:11:41;10.00;99.90
52709;DHT22;38606;52.986;6.980;2022-12-29T05:14:07;9.80;99.90
52709;DHT22;38606;52.986;6.980;2022-12-29T05:16:33;9.90;99.90
52709;DHT22;38606;52.986;6.980;2022-12-29T05:18:58;9.80;99.90
52709;DHT22;38606;52.986;6.980;2022-12-29T05:21:24;9.90;99.90
52709;DHT22;38606;52.986;6.980;2022-12-29T05:23:50;9.70;99.90
52709;DHT22;38606;52.986;6.980;2022-12-29T05:26:16;9.80;99.90
52709;DHT22;38606;52.986;6.980;2022-12-29T05:28:42;9.70;99.90
52709;DHT22;38606;52.986;6.980;2022-12-29T05:31:07;9.80;99.90
52709;DHT22;38606;52.986;6.980;2022-12-29T05:33:33;9.90;99.90
52709;DHT22;38606;52.986;6.980;2022-12-29T05:36:04;9.70;99.90
52709;DHT22;38606;52.986;6.980;2022-12-29T05:38:30;9.60;99.90
52709;DHT22;38606;52.986;6.980;2022-12-29T05:40:56;9.80;99.90
52709;DHT22;38606;52.986;6.980;2022-12-29T05:43:22;9.70;99.90
52709;DHT22;38606;52.986;6.980;2022-12-29T05:45:51;9.70;99.90
52709;DHT22;38606;52.986;6.980;2022-12-29T05:48:17;9.80;99.90
52709;DHT22;38606;52.986;6.980;2022-12-29T05:50:46;9.80;99.90
52709;DHT22;38606;52.986;6.980;2022-12-29T05:53:12;9.60;99.90
52709;DHT22;38606;52.986;6.980;2022-12-29T05:55:37;9.70;99.90
52709;DHT22;38606;52.986;6.980;2022-12-29T05:58:03;9.60;99.90
52709;DHT22;38606;52.986;6.980;2022-12-29T06:00:29;9.70;99.90
52709;DHT22;38606;52.986;6.980;2022-12-29T06:02:54;9.60;99.90
52709;DHT22;38606;52.986;6.980;2022-12-29T06:05:20;9.60;99.90
52709;DHT22;38606;52.986;6.980;2022-12-29T06:07:46;10.40;99.90
52709;DHT22;38606;52.986;6.980;2022-12-29T06:10:12;9.60;99.90
52709;DHT22;38606;52.986;6.980;2022-12-29T06:12:38;9.50;99.90
52709;DHT22;38606;52.986;6.980;2022-12-29T06:15:04;9.50;99.90
52709;DHT22;38606;52.986;6.980;2022-12-29T06:17:30;9.60;99.90
52709;DHT22;38606;52.986;6.980;2022-12-29T06:19:55;7.90;99.90
52709;DHT22;38606;52.986;6.980;2022-12-29T06:22:21;9.50;99.90
52709;DHT22;38606;52.986;6.980;2022-12-29T06:24:47;9.60;99.90
52709;DHT22;38606;52.986;6.980;2022-12-29T06:27:13;9.60;99.90
52709;DHT22;38606;52.986;6.980;2022-12-29T06:29:39;9.50;99.90
52709;DHT22;38606;52.986;6.980;2022-12-29T06:32:06;9.80;99.90
52709;DHT22;38606;52.986;6.980;2022-12-29T06:34:32;10.50;99.90
52709;DHT22;38606;52.986;6.980;2022-12-29T06:36:58;9.60;99.90
52709;DHT22;38606;52.986;6.980;2022-12-29T06:39:23;9.50;99.90
52709;DHT22;38606;52.986;6.980;2022-12-29T06:41:52;9.60;99.90
52709;DHT22;38606;52.986;6.980;2022-12-29T06:44:18;9.70;99.90
52709;DHT22;38606;52.986;6.980;2022-12-29T06:46:43;9.60;99.90
52709;DHT22;38606;52.986;6.980;2022-12-29T06:49:09;9.70;99.90
52709;DHT22;38606;52.986;6.980;2022-12-29T06:51:35;9.70;99.90
52709;DHT22;38606;52.986;6.980;2022-12-29T06:54:00;9.80;99.90
52709;DHT22;38606;52.986;6.980;2022-12-29T06:56:26;9.60;99.90
52709;DHT22;38606;52.986;6.980;2022-12-29T06:58:52;9.90;99.90
52709;DHT22;38606;52.986;6.980;2022-12-29T07:01:17;9.70;99.90
52709;DHT22;38606;52.986;6.980;2022-12-29T07:03:43;10.10;99.90
52709;DHT22;38606;52.986;6.980;2022-12-29T07:06:09;9.60;99.90
52709;DHT22;38606;52.986;6.980;2022-12-29T07:08:35;9.60;99.90
52709;DHT22;38606;52.986;6.980;2022-12-29T07:11:00;9.60;99.90
52709;DHT22;38606;52.986;6.980;2022-12-29T07:13:26;9.60;99.90
52709;DHT22;38606;52.986;6.980;2022-12-29T07:15:52;9.80;99.90
52709;DHT22;38606;52.986;6.980;2022-12-29T07:18:17;9.70;99.90
52709;DHT22;38606;52.986;6.980;2022-12-29T07:20:44;9.60;99.90
52709;DHT22;38606;52.986;6.980;2022-12-29T07:23:10;9.50;99.90
52709;DHT22;38606;52.986;6.980;2022-12-29T07:25:36;9.70;99.90
52709;DHT22;38606;52.986;6.980;2022-12-29T07:28:03;9.70;99.90
52709;DHT22;38606;52.986;6.980;2022-12-29T07:30:32;9.60;99.90
52709;DHT22;38606;52.986;6.980;2022-12-29T07:32:58;9.60;99.90
52709;DHT22;38606;52.986;6.980;2022-12-29T07:35:23;9.60;99.90
52709;DHT22;38606;52.986;6.980;2022-12-29T07:37:49;10.00;99.90
52709;DHT22;38606;52.986;6.980;2022-12-29T07:40:15;9.60;99.90
52709;DHT22;38606;52.986;6.980;2022-12-29T07:42:41;9.70;99.90
52709;DHT22;38606;52.986;6.980;2022-12-29T07:45:08;9.70;99.90
52709;DHT22;38606;52.986;6.980;2022-12-29T07:47:34;9.70;99.90
52709;DHT22;38606;52.986;6.980;2022-12-29T07:50:00;9.60;99.90
52709;DHT22;38606;52.986;6.980;2022-12-29T07:52:28;10.10;99.90
52709;DHT22;38606;52.986;6.980;2022-12-29T07:54:54;9.60;99.90
52709;DHT22;38606;52.986;6.980;2022-12-29T07:57:26;9.60;99.90
52709;DHT22;38606;52.986;6.980;2022-12-29T07:59:51;9.80;99.90
52709;DHT22;38606;52.986;6.980;2022-12-29T08:02:17;9.60;99.90
52709;DHT22;38606;52.986;6.980;2022-12-29T08:04:43;9.50;99.90
52709;DHT22;38606;52.986;6.980;2022-12-29T08:07:08;9.70;99.90
52709;DHT22;38606;52.986;6.980;2022-12-29T08:09:34;9.70;99.90
52709;DHT22;38606;52.986;6.980;2022-12-29T08:12:00;9.50;99.90
52709;DHT22;38606;52.986;6.980;2022-12-29T08:14:25;9.60;99.90
52709;DHT22;38606;52.986;6.980;2022-12-29T08:16:51;9.50;99.90
52709;DHT22;38606;52.986;6.980;2022-12-29T08:19:17;9.70;99.90
52709;DHT22;38606;52.986;6.980;2022-12-29T08:21:42;9.50;99.90
52709;DHT22;38606;52.986;6.980;2022-12-29T08:24:09;9.50;99.90
52709;DHT22;38606;52.986;6.980;2022-12-29T08:26:34;9.60;99.90
52709;DHT22;38606;52.986;6.980;2022-12-29T08:29:00;9.60;99.90
52709;DHT22;38606;52.986;6.980;2022-12-29T08:31:26;9.40;99.90
52709;DHT22;38606;52.986;6.980;2022-12-29T08:33:52;9.70;99.90
52709;DHT22;38606;52.986;6.980;2022-12-29T08:36:18;10.00;99.90
52709;DHT22;38606;52.986;6.980;2022-12-29T08:38:44;9.60;99.90
52709;DHT22;38606;52.986;6.980;2022-12-29T08:41:09;9.60;99.90
52709;DHT22;38606;52.986;6.980;2022-12-29T08:43:35;9.60;99.90
52709;DHT22;38606;52.986;6.980;2022-12-29T08:46:01;9.60;99.90
52709;DHT22;38606;52.986;6.980;2022-12-29T08:48:27;9.70;99.90
52709;DHT22;38606;52.986;6.980;2022-12-29T08:50:53;9.50;99.90
52709;DHT22;38606;52.986;6.980;2022-12-29T08:53:19;9.70;99.90
52709;DHT22;38606;52.986;6.980;2022-12-29T08:55:56;9.50;99.90
52709;DHT22;38606;52.986;6.980;2022-12-29T08:58:22;9.60;99.90
52709;DHT22;38606;52.986;6.980;2022-12-29T09:00:47;9.70;99.90
52709;DHT22;38606;52.986;6.980;2022-12-29T09:03:13;9.80;99.90
52709;DHT22;38606;52.986;6.980;2022-12-29T09:05:39;9.90;99.90
52709;DHT22;38606;52.986;6.980;2022-12-29T09:08:04;9.70;99.90
52709;DHT22;38606;52.986;6.980;2022-12-29T09:10:30;9.60;99.90
52709;DHT22;38606;52.986;6.980;2022-12-29T09:12:56;9.80;99.90
52709;DHT22;38606;52.986;6.980;2022-12-29T09:15:22;9.60;99.90
52709;DHT22;38606;52.986;6.980;2022-12-29T09:17:48;9.80;99.90
52709;DHT22;38606;52.986;6.980;2022-12-29T09:20:16;10.50;99.90
52709;DHT22;38606;52.986;6.980;2022-12-29T09:22:42;9.70;99.90
52709;DHT22;38606;52.986;6.980;2022-12-29T09:25:09;9.80;99.90
52709;DHT22;38606;52.986;6.980;2022-12-29T09:27:35;9.80;99.90
52709;DHT22;38606;52.986;6.980;2022-12-29T09:30:02;10.10;99.90
52709;DHT22;38606;52.986;6.980;2022-12-29T09:32:28;9.90;99.90
52709;DHT22;38606;52.986;6.980;2022-12-29T09:34:54;9.80;99.90
52709;DHT22;38606;52.986;6.980;2022-12-29T09:37:19;9.80;99.90
52709;DHT22;38606;52.986;6.980;2022-12-29T09:39:46;9.90;99.90
52709;DHT22;38606;52.986;6.980;2022-12-29T09:42:38;9.70;99.90
52709;DHT22;38606;52.986;6.980;2022-12-29T09:47:32;9.70;99.90
52709;DHT22;38606;52.986;6.980;2022-12-29T09:52:45;8.10;99.90
52709;DHT22;38606;52.986;6.980;2022-12-29T09:55:20;9.60;99.90
52709;DHT22;38606;52.986;6.980;2022-12-29T09:57:53;9.70;99.90
52709;DHT22;38606;52.986;6.980;2022-12-29T10:00:22;9.70;99.90
52709;DHT22;38606;52.986;6.980;2022-12-29T10:03:19;9.70;99.90
52709;DHT22;38606;52.986;6.980;2022-12-29T10:11:26;9.80;99.90
52709;DHT22;38606;52.986;6.980;2022-12-29T10:14:10;9.80;99.90
52709;DHT22;38606;52.986;6.980;2022-12-29T10:16:51;9.70;99.90
52709;DHT22;38606;52.986;6.980;2022-12-29T10:19:33;9.60;99.90
52709;DHT22;38606;52.986;6.980;2022-12-29T10:22:09;9.70;99.90
52709;DHT22;38606;52.986;6.980;2022-12-29T10:24:39;9.60;99.90
52709;DHT22;38606;52.986;6.980;2022-12-29T10:27:10;10.20;99.90
52709;DHT22;38606;52.986;6.980;2022-12-29T10:29:40;9.40;99.90
52709;DHT22;38606;52.986;6.980;2022-12-29T10:32:38;9.80;99.90
52709;DHT22;38606;52.986;6.980;2022-12-29T10:35:30;9.40;99.90
52709;DHT22;38606;52.986;6.980;2022-12-29T10:38:13;9.40;99.90
52709;DHT22;38606;52.986;6.980;2022-12-29T10:40:56;9.60;99.90
52709;DHT22;38606;52.986;6.980;2022-12-29T10:45:53;9.10;99.90
52709;DHT22;38606;52.986;6.980;2022-12-29T10:48:41;9.40;99.90
52709;DHT22;38606;52.986;6.980;2022-12-29T10:51:11;9.40;99.90
52709;DHT22;38606;52.986;6.980;2022-12-29T10:53:45;9.40;99.90
52709;DHT22;38606;52.986;6.980;2022-12-29T10:58:46;9.60;99.90
52709;DHT22;38606;52.986;6.980;2022-12-29T11:01:13;9.30;99.90
52709;DHT22;38606;52.986;6.980;2022-12-29T11:04:07;9.20;99.90
52709;DHT22;38606;52.986;6.980;2022-12-29T11:06:36;9.50;99.90
52709;DHT22;38606;52.986;6.980;2022-12-29T11:09:13;9.40;99.90
52709;DHT22;38606;52.986;6.980;2022-12-29T11:11:40;9.30;99.90
52709;DHT22;38606;52.986;6.980;2022-12-29T11:14:13;9.30;99.90
52709;DHT22;38606;52.986;6.980;2022-12-29T11:16:39;9.40;99.90
52709;DHT22;38606;52.986;6.980;2022-12-29T11:19:21;9.50;99.90
52709;DHT22;38606;52.986;6.980;2022-12-29T11:21:47;7.40;99.90
52709;DHT22;38606;52.986;6.980;2022-12-29T11:24:29;9.10;99.90
52709;DHT22;38606;52.986;6.980;2022-12-29T11:27:13;9.20;99.90
52709;DHT22;38606;52.986;6.980;2022-12-29T11:29:41;9.40;99.90
52709;DHT22;38606;52.986;6.980;2022-12-29T11:32:28;9.40;99.90
52709;DHT22;38606;52.986;6.980;2022-12-29T11:34:56;9.40;99.90
52709;DHT22;38606;52.986;6.980;2022-12-29T11:37:37;9.70;99.90
52709;DHT22;38606;52.986;6.980;2022-12-29T11:40:19;9.30;99.90
52709;DHT22;38606;52.986;6.980;2022-12-29T11:42:56;9.50;99.90
52709;DHT22;38606;52.986;6.980;2022-12-29T11:45:49;9.40;99.90
52709;DHT22;38606;52.986;6.980;2022-12-29T11:48:19;9.40;99.90
52709;DHT22;38606;52.986;6.980;2022-12-29T11:50:56;9.60;99.90
52709;DHT22;38606;52.986;6.980;2022-12-29T11:53:35;9.40;99.90
52709;DHT22;38606;52.986;6.980;2022-12-29T11:56:04;9.50;99.90
52709;DHT22;38606;52.986;6.980;2022-12-29T11:58:33;9.50;99.90
52709;DHT22;38606;52.986;6.980;2022-12-29T12:03:56;9.60;99.90
52709;DHT22;38606;52.986;6.980;2022-12-29T12:06:25;9.60;99.90
52709;DHT22;38606;52.986;6.980;2022-12-29T12:09:29;9.70;99.90
52709;DHT22;38606;52.986;6.980;2022-12-29T12:11:57;9.60;99.90
52709;DHT22;38606;52.986;6.980;2022-12-29T12:14:43;9.50;99.90
52709;DHT22;38606;52.986;6.980;2022-12-29T12:17:36;9.50;99.90
52709;DHT22;38606;52.986;6.980;2022-12-29T12:20:45;9.60;99.90
52709;DHT22;38606;52.986;6.980;2022-12-29T12:26:18;9.40;99.90
52709;DHT22;38606;52.986;6.980;2022-12-29T12:28:56;7.60;99.90
52709;DHT22;38606;52.986;6.980;2022-12-29T12:31:52;9.50;99.90
52709;DHT22;38606;52.986;6.980;2022-12-29T12:34:29;9.60;99.90
52709;DHT22;38606;52.986;6.980;2022-12-29T12:45:16;10.00;99.90
52709;DHT22;38606;52.986;6.980;2022-12-29T12:53:36;9.90;99.90
52709;DHT22;38606;52.986;6.980;2022-12-29T12:58:41;10.00;99.90
52709;DHT22;38606;52.986;6.980;2022-12-29T13:07:16;10.10;99.90
52709;DHT22;38606;52.986;6.980;2022-12-29T13:10:05;9.80;99.90
52709;DHT22;38606;52.986;6.980;2022-12-29T13:12:41;9.90;99.90
52709;DHT22;38606;52.986;6.980;2022-12-29T13:18:06;9.70;99.90
52709;DHT22;38606;52.986;6.980;2022-12-29T13:23:43;9.70;99.90
52709;DHT22;38606;52.986;6.980;2022-12-29T13:26:36;9.80;99.90
52709;DHT22;38606;52.986;6.980;2022-12-29T13:29:34;9.90;99.90
52709;DHT22;38606;52.986;6.980;2022-12-29T13:37:36;9.80;99.90
52709;DHT22;38606;52.986;6.980;2022-12-29T13:40:16;9.80;99.90
52709;DHT22;38606;52.986;6.980;2022-12-29T13:42:43;9.80;99.90
52709;DHT22;38606;52.986;6.980;2022-12-29T13:45:16;9.80;99.90
52709;DHT22;38606;52.986;6.980;2022-12-29T13:48:01;9.60;99.90
52709;DHT22;38606;52.986;6.980;2022-12-29T13:50:29;9.70;99.90
52709;DHT22;38606;52.986;6.980;2022-12-29T13:56:17;9.70;99.90
52709;DHT22;38606;52.986;6.980;2022-12-29T14:02:03;9.50;99.90
52709;DHT22;38606;52.986;6.980;2022-12-29T14:04:34;9.50;99.90
52709;DHT22;38606;52.986;6.980;2022-12-29T14:07:05;9.40;99.90
52709;DHT22;38606;52.986;6.980;2022-12-29T14:09:50;9.40;99.90
52709;DHT22;38606;52.986;6.980;2022-12-29T14:12:38;9.40;99.90
52709;DHT22;38606;52.986;6.980;2022-12-29T14:15:06;9.50;99.90
52709;DHT22;38606;52.986;6.980;2022-12-29T14:17:40;9.40;99.90
52709;DHT22;38606;52.986;6.980;2022-12-29T14:20:18;9.70;99.90
52709;DHT22;38606;52.986;6.980;2022-12-29T14:23:14;9.60;99.90
52709;DHT22;38606;52.986;6.980;2022-12-29T14:28:30;9.40;99.90
52709;DHT22;38606;52.986;6.980;2022-12-29T14:31:43;9.20;99.90
52709;DHT22;38606;52.986;6.980;2022-12-29T14:37:03;9.20;99.90
52709;DHT22;38606;52.986;6.980;2022-12-29T14:39:38;9.00;99.90
52709;DHT22;38606;52.986;6.980;2022-12-29T14:42:12;9.20;99.90
52709;DHT22;38606;52.986;6.980;2022-12-29T14:47:40;9.00;99.90
52709;DHT22;38606;52.986;6.980;2022-12-29T14:50:41;9.10;99.90
52709;DHT22;38606;52.986;6.980;2022-12-29T14:54:00;8.90;99.90
52709;DHT22;38606;52.986;6.980;2022-12-29T14:56:25;9.00;99.90
52709;DHT22;38606;52.986;6.980;2022-12-29T14:58:55;8.90;99.90
52709;DHT22;38606;52.986;6.980;2022-12-29T15:04:14;8.90;99.90
52709;DHT22;38606;52.986;6.980;2022-12-29T15:06:41;8.80;99.90
52709;DHT22;38606;52.986;6.980;2022-12-29T15:09:37;8.90;99.90
52709;DHT22;38606;52.986;6.980;2022-12-29T15:14:55;8.70;99.90
52709;DHT22;38606;52.986;6.980;2022-12-29T15:17:32;8.90;99.90
52709;DHT22;38606;52.986;6.980;2022-12-29T15:20:02;8.60;99.90
52709;DHT22;38606;52.986;6.980;2022-12-29T15:22:43;8.40;99.90
52709;DHT22;38606;52.986;6.980;2022-12-29T15:25:15;8.70;99.90
52709;DHT22;38606;52.986;6.980;2022-12-29T15:27:43;8.60;99.90
52709;DHT22;38606;52.986;6.980;2022-12-29T15:30:13;8.80;99.90
52709;DHT22;38606;52.986;6.980;2022-12-29T15:32:43;8.60;99.90
52709;DHT22;38606;52.986;6.980;2022-12-29T15:35:32;8.40;99.90
52709;DHT22;38606;52.986;6.980;2022-12-29T15:37:58;8.60;99.90
52709;DHT22;38606;52.986;6.980;2022-12-29T15:40:30;8.80;99.90
52709;DHT22;38606;52.986;6.980;2022-12-29T15:43:23;7.00;99.90
52709;DHT22;38606;52.986;6.980;2022-12-29T15:45:54;8.50;99.90
52709;DHT22;38606;52.986;6.980;2022-12-29T15:48:23;8.40;99.90
52709;DHT22;38606;52.986;6.980;2022-12-29T15:50:50;8.60;99.90
52709;DHT22;38606;52.986;6.980;2022-12-29T15:53:30;8.40;99.90
52709;DHT22;38606;52.986;6.980;2022-12-29T15:56:01;8.40;99.90
52709;DHT22;38606;52.986;6.980;2022-12-29T15:58:31;8.30;99.90
52709;DHT22;38606;52.986;6.980;2022-12-29T16:01:05;8.60;99.90
52709;DHT22;38606;52.986;6.980;2022-12-29T16:03:38;8.40;99.90
52709;DHT22;38606;52.986;6.980;2022-12-29T16:06:21;8.40;99.90
52709;DHT22;38606;52.986;6.980;2022-12-29T16:08:56;8.30;99.90
52709;DHT22;38606;52.986;6.980;2022-12-29T16:11:34;8.50;99.90
52709;DHT22;38606;52.986;6.980;2022-12-29T16:14:00;8.40;99.90
52709;DHT22;38606;52.986;6.980;2022-12-29T16:16:35;8.50;99.90
52709;DHT22;38606;52.986;6.980;2022-12-29T16:19:12;8.40;99.90
52709;DHT22;38606;52.986;6.980;2022-12-29T16:21:38;8.40;99.90
52709;DHT22;38606;52.986;6.980;2022-12-29T16:24:08;8.30;99.90
52709;DHT22;38606;52.986;6.980;2022-12-29T16:26:37;8.40;99.90
52709;DHT22;38606;52.986;6.980;2022-12-29T16:29:05;8.60;99.90
52709;DHT22;38606;52.986;6.980;2022-12-29T16:31:36;8.50;99.90
52709;DHT22;38606;52.986;6.980;2022-12-29T16:36:58;8.50;99.90
52709;DHT22;38606;52.986;6.980;2022-12-29T16:39:34;8.20;99.90
52709;DHT22;38606;52.986;6.980;2022-12-29T16:42:00;8.40;99.90
52709;DHT22;38606;52.986;6.980;2022-12-29T16:44:30;6.60;99.90
52709;DHT22;38606;52.986;6.980;2022-12-29T16:47:16;8.50;99.90
52709;DHT22;38606;52.986;6.980;2022-12-29T16:49:50;8.30;99.90
52709;DHT22;38606;52.986;6.980;2022-12-29T16:52:27;8.40;99.90
52709;DHT22;38606;52.986;6.980;2022-12-29T16:54:56;8.40;99.90
52709;DHT22;38606;52.986;6.980;2022-12-29T16:57:27;8.30;99.90
52709;DHT22;38606;52.986;6.980;2022-12-29T16:59:56;8.60;99.90
52709;DHT22;38606;52.986;6.980;2022-12-29T17:02:24;8.40;99.90
52709;DHT22;38606;52.986;6.980;2022-12-29T17:04:51;8.30;99.90
52709;DHT22;38606;52.986;6.980;2022-12-29T17:07:23;8.50;99.90
52709;DHT22;38606;52.986;6.980;2022-12-29T17:09:50;8.40;99.90
52709;DHT22;38606;52.986;6.980;2022-12-29T17:12:27;9.20;99.90
52709;DHT22;38606;52.986;6.980;2022-12-29T17:15:02;8.10;99.90
52709;DHT22;38606;52.986;6.980;2022-12-29T17:17:42;8.20;99.90
52709;DHT22;38606;52.986;6.980;2022-12-29T17:20:24;8.00;99.90
52709;DHT22;38606;52.986;6.980;2022-12-29T17:22:51;8.10;99.90
52709;DHT22;38606;52.986;6.980;2022-12-29T17:25:33;7.80;99.90
52709;DHT22;38606;52.986;6.980;2022-12-29T17:28:04;7.80;99.90
52709;DHT22;38606;52.986;6.980;2022-12-29T17:30:33;7.40;99.90
52709;DHT22;38606;52.986;6.980;2022-12-29T17:33:05;7.40;99.90
52709;DHT22;38606;52.986;6.980;2022-12-29T17:35:33;7.50;99.90
52709;DHT22;38606;52.986;6.980;2022-12-29T17:37:59;7.60;99.90
52709;DHT22;38606;52.986;6.980;2022-12-29T17:40:31;7.60;99.90
52709;DHT22;38606;52.986;6.980;2022-12-29T17:42:58;7.40;99.90
52709;DHT22;38606;52.986;6.980;2022-12-29T17:45:27;7.10;99.90
52709;DHT22;38606;52.986;6.980;2022-12-29T17:47:53;7.10;99.90
52709;DHT22;38606;52.986;6.980;2022-12-29T17:50:24;7.30;99.90
52709;DHT22;38606;52.986;6.980;2022-12-29T17:52:53;7.20;99.90
52709;DHT22;38606;52.986;6.980;2022-12-29T17:55:23;5.80;99.90
52709;DHT22;38606;52.986;6.980;2022-12-29T17:57:51;7.30;99.90